Time;durP1;ratioP1;P1;durP2;ratioP2;P2;SDS_P1;SDS_P2;PMS_P1;PMS_P2;Temp;Humidity;BMP_temperature;BMP_pressure;BME280_temperature;BME280_humidity;BME280_pressure;Samples;Min_cycle;Max_cycle;Signal;HPM_P1;HPM_P2
2021/01/30 00:00:27;;;;;;;5.47;0.90;;;6.10;99.90;;;;;;4950463;28;20419;-70
2021/01/30 00:02:53;;;;;;;6.57;1.15;;;6.10;99.90;;;;;;4951786;28;20047;-70
2021/01/30 00:05:20;;;;;;;6.60;1.50;;;6.10;99.90;;;;;;4953502;28;20082;-70
2021/01/30 00:07:46;;;;;;;8.85;2.10;;;6.10;99.90;;;;;;4953093;28;20070;-71
2021/01/30 00:10:14;;;;;;;7.30;1.50;;;6.10;99.90;;;;;;4952599;29;20055;-70
2021/01/30 00:12:41;;;;;;;6.30;1.10;;;6.20;99.90;;;;;;4952979;28;20154;-70
2021/01/30 00:15:12;;;;;;;5.90;1.10;;;6.10;99.90;;;;;;4953286;28;20150;-70
2021/01/30 00:17:38;;;;;;;4.95;0.88;;;6.10;99.90;;;;;;4952490;28;20227;-70
2021/01/30 00:20:07;;;;;;;3.33;0.80;;;6.10;99.90;;;;;;4953167;28;20113;-70
2021/01/30 00:22:34;;;;;;;6.50;1.42;;;6.20;99.90;;;;;;4966643;28;20581;-70
2021/01/30 00:25:00;;;;;;;8.45;1.00;;;6.20;99.90;;;;;;4951935;28;20110;-70
2021/01/30 00:27:27;;;;;;;6.75;1.33;;;6.20;99.90;;;;;;4949930;29;20540;-70
2021/01/30 00:29:53;;;;;;;8.25;1.52;;;6.20;99.90;;;;;;4952562;28;20070;-70
2021/01/30 00:32:20;;;;;;;7.80;1.85;;;6.20;99.90;;;;;;4953423;28;20062;-70
2021/01/30 00:34:48;;;;;;;5.97;1.10;;;6.20;99.90;;;;;;4952333;28;20047;-70
2021/01/30 00:37:23;;;;;;;8.32;1.52;;;6.20;99.90;;;;;;4952914;29;20146;-70
2021/01/30 00:39:51;;;;;;;7.60;1.50;;;6.20;99.90;;;;;;4951855;29;20517;-70
2021/01/30 00:42:21;;;;;;;7.38;1.30;;;6.20;99.90;;;;;;4951458;29;20145;-70
2021/01/30 00:44:48;;;;;;;12.93;1.85;;;6.10;99.90;;;;;;4952385;28;20134;-70
2021/01/30 00:47:15;;;;;;;9.57;1.40;;;6.10;99.90;;;;;;4952013;28;20141;-70
2021/01/30 00:49:43;;;;;;;8.65;1.55;;;6.20;99.90;;;;;;4951083;29;20051;-70
2021/01/30 00:52:12;;;;;;;10.18;1.80;;;6.20;99.90;;;;;;4952247;28;20075;-70
2021/01/30 00:54:40;;;;;;;8.13;1.58;;;6.20;99.90;;;;;;4951714;28;20515;-70
2021/01/30 00:57:06;;;;;;;10.25;1.70;;;6.20;99.90;;;;;;4950817;28;20455;-70
2021/01/30 00:59:33;;;;;;;11.40;1.50;;;6.30;99.90;;;;;;4951109;29;20556;-70
2021/01/30 01:02:00;;;;;;;6.63;1.40;;;6.20;99.90;;;;;;4952327;28;20074;-70
2021/01/30 01:04:26;;;;;;;11.10;1.35;;;6.20;99.90;;;;;;4951662;28;20063;-70
2021/01/30 01:06:53;;;;;;;8.73;1.80;;;6.20;99.90;;;;;;4951619;28;20047;-70
2021/01/30 01:09:19;;;;;;;8.88;1.70;;;6.20;99.90;;;;;;4949235;28;20138;-70
2021/01/30 01:11:48;;;;;;;11.93;1.63;;;6.20;99.90;;;;;;4950365;28;20633;-70
2021/01/30 01:14:20;;;;;;;6.93;1.48;;;6.20;99.90;;;;;;4952286;28;20130;-70
2021/01/30 01:16:47;;;;;;;8.20;1.38;;;6.20;99.90;;;;;;4951435;28;20076;-70
2021/01/30 01:19:14;;;;;;;6.95;1.40;;;6.20;99.90;;;;;;4951609;28;20051;-70
2021/01/30 01:21:40;;;;;;;5.43;1.30;;;6.20;99.90;;;;;;4952225;28;20134;-70
2021/01/30 01:24:07;;;;;;;11.98;1.70;;;6.20;99.90;;;;;;4951515;28;20120;-70
2021/01/30 01:26:34;;;;;;;9.23;1.38;;;6.20;99.90;;;;;;4951811;28;20130;-70
2021/01/30 01:29:01;;;;;;;5.85;1.35;;;6.20;99.90;;;;;;4948961;28;20047;-71
2021/01/30 01:31:27;;;;;;;7.68;1.25;;;6.20;99.90;;;;;;4950491;28;20133;-70
2021/01/30 01:33:54;;;;;;;14.95;1.27;;;6.10;99.90;;;;;;4949918;28;20047;-70
2021/01/30 01:36:21;;;;;;;8.20;1.23;;;6.20;99.90;;;;;;4947933;28;20665;-70
2021/01/30 01:38:49;;;;;;;4.72;1.10;;;6.20;99.90;;;;;;4951164;28;20078;-69
2021/01/30 01:41:16;;;;;;;9.40;1.65;;;6.20;99.90;;;;;;4951251;28;20047;-70
2021/01/30 01:43:43;;;;;;;10.27;1.67;;;6.20;99.90;;;;;;4950101;28;20134;-69
2021/01/30 01:46:30;;;;;;;10.18;1.58;;;6.10;99.90;;;;;;4950599;28;20047;-70
2021/01/30 01:49:11;;;;;;;8.43;1.52;;;6.20;99.90;;;;;;4946180;29;20074;-70
2021/01/30 01:51:45;;;;;;;12.55;1.52;;;6.10;99.90;;;;;;4966153;28;20075;-70
2021/01/30 01:54:20;;;;;;;8.98;1.80;;;6.10;99.90;;;;;;4951051;28;20146;-70
2021/01/30 01:56:51;;;;;;;10.38;1.80;;;6.20;99.90;;;;;;4935336;29;20118;-70
2021/01/30 01:59:19;;;;;;;6.18;1.23;;;6.20;99.90;;;;;;4948775;28;20078;-70
2021/01/30 02:01:46;;;;;;;8.27;1.25;;;6.10;99.90;;;;;;4949903;28;20077;-70
2021/01/30 02:04:15;;;;;;;14.07;1.50;;;6.10;99.90;;;;;;4949800;28;20043;-70
2021/01/30 02:06:46;;;;;;;4.25;0.98;;;6.00;99.90;;;;;;4950097;28;20358;-70
2021/01/30 02:09:19;;;;;;;6.63;1.60;;;6.10;99.90;;;;;;4948900;28;20532;-70
2021/01/30 02:12:04;;;;;;;;;;;6.10;99.90;;;;;;4951418;29;20137;-70
2021/01/30 02:14:35;;;;;;;7.78;1.25;;;6.10;99.90;;;;;;4935595;29;20048;-69
2021/01/30 02:17:12;;;;;;;7.47;1.15;;;6.00;99.90;;;;;;4943240;28;20051;-70
2021/01/30 02:19:54;;;;;;;6.00;1.27;;;6.00;99.90;;;;;;4950352;29;20047;-69
2021/01/30 02:22:39;;;;;;;7.28;1.30;;;6.00;99.90;;;;;;4950135;28;20183;-69
2021/01/30 02:25:53;;;;;;;11.05;1.52;;;6.00;99.90;;;;;;4965103;28;20113;-69
2021/01/30 02:28:38;;;;;;;8.70;1.42;;;6.10;99.90;;;;;;4931845;29;20447;-70
2021/01/30 02:31:11;;;;;;;8.93;1.13;;;6.10;99.90;;;;;;4950969;29;20473;-70
2021/01/30 02:33:43;;;;;;;7.53;1.20;;;6.10;99.90;;;;;;4950937;28;20062;-70
2021/01/30 02:36:23;;;;;;;11.20;1.60;;;6.10;99.90;;;;;;4951134;28;20061;-70
2021/01/30 02:39:15;;;;;;;4.43;1.00;;;6.20;99.90;;;;;;4949432;28;20130;-70
2021/01/30 02:41:50;;;;;;;9.45;1.13;;;6.20;99.90;;;;;;4941972;29;20058;-69
2021/01/30 02:44:18;;;;;;;11.63;1.42;;;6.20;99.90;;;;;;4946342;28;20122;-70
2021/01/30 02:46:50;;;;;;;9.40;1.58;;;6.30;99.90;;;;;;4949699;29;20118;-70
2021/01/30 02:49:21;;;;;;;14.70;1.73;;;6.20;99.90;;;;;;4948318;28;20138;-70
2021/01/30 02:51:56;;;;;;;12.40;3.47;;;6.20;99.90;;;;;;4950769;28;20627;-70
2021/01/30 02:54:23;;;;;;;10.80;1.33;;;6.20;99.90;;;;;;4947851;28;20143;-69
2021/01/30 02:56:54;;;;;;;9.90;1.40;;;6.20;99.90;;;;;;4937314;28;20129;-69
2021/01/30 02:59:23;;;;;;;22.52;1.73;;;6.20;99.90;;;;;;4949042;28;20138;-70
2021/01/30 03:01:50;;;;;;;11.63;1.48;;;6.20;99.90;;;;;;4947546;28;20134;-70
2021/01/30 03:04:27;;;;;;;18.55;1.90;;;6.30;99.90;;;;;;4948365;28;20047;-70
2021/01/30 03:07:07;;;;;;;7.32;1.23;;;6.30;99.90;;;;;;4950498;28;20138;-70
2021/01/30 03:09:44;;;;;;;13.07;1.58;;;6.30;99.90;;;;;;4947135;29;20040;-70
2021/01/30 03:12:49;;;;;;;16.60;1.30;;;6.30;99.90;;;;;;4948512;29;20546;-70
2021/01/30 03:15:29;;;;;;;9.98;1.33;;;6.20;99.90;;;;;;4934997;29;20130;-69
2021/01/30 03:17:59;;;;;;;12.48;1.77;;;6.20;99.90;;;;;;4948117;28;20071;-69
2021/01/30 03:20:29;;;;;;;8.02;1.02;;;6.20;99.90;;;;;;4945960;29;20055;-70
2021/01/30 03:22:58;;;;;;;13.68;1.63;;;6.20;99.90;;;;;;4949485;28;20070;-70
2021/01/30 03:25:26;;;;;;;12.60;1.25;;;6.20;99.90;;;;;;4945797;29;20052;-69
2021/01/30 03:27:56;;;;;;;12.23;1.25;;;6.10;99.90;;;;;;4941947;28;20462;-70
2021/01/30 03:30:23;;;;;;;11.98;1.38;;;6.20;99.90;;;;;;4950683;28;20079;-70
2021/01/30 03:32:50;;;;;;;6.15;1.05;;;6.20;99.90;;;;;;4946940;28;20487;-70
2021/01/30 03:35:17;;;;;;;10.70;1.30;;;6.10;99.90;;;;;;4949574;28;20475;-70
2021/01/30 03:37:44;;;;;;;14.60;1.48;;;6.20;99.90;;;;;;4949723;29;20095;-69
2021/01/30 03:40:11;;;;;;;5.50;1.00;;;6.10;99.90;;;;;;4953391;28;20148;-69
2021/01/30 03:42:38;;;;;;;12.55;1.15;;;6.10;99.90;;;;;;4952252;28;20079;-70
2021/01/30 03:45:08;;;;;;;13.75;1.65;;;6.20;99.90;;;;;;4953087;28;20074;-70
2021/01/30 03:47:35;;;;;;;11.63;1.77;;;6.20;99.90;;;;;;4952317;28;20126;-70
2021/01/30 03:50:02;;;;;;;12.50;1.52;;;6.20;99.90;;;;;;4950872;28;20051;-70
2021/01/30 03:52:28;;;;;;;6.70;1.40;;;6.20;99.90;;;;;;4952644;28;20051;-70
2021/01/30 03:54:54;;;;;;;11.35;1.63;;;6.20;99.90;;;;;;4950441;28;20090;-70
2021/01/30 03:57:21;;;;;;;10.00;1.25;;;6.20;99.90;;;;;;4945230;28;20051;-70
2021/01/30 03:59:48;;;;;;;13.68;1.75;;;6.10;99.90;;;;;;4942891;28;20051;-70
2021/01/30 04:02:15;;;;;;;18.65;2.63;;;6.20;99.90;;;;;;4952095;28;20055;-70
2021/01/30 04:04:44;;;;;;;15.75;1.58;;;6.20;99.90;;;;;;4951987;29;20074;-70
2021/01/30 04:07:11;;;;;;;16.33;1.77;;;6.20;99.90;;;;;;4942018;28;20126;-70
2021/01/30 04:09:37;;;;;;;16.83;1.85;;;6.20;99.90;;;;;;4945858;29;20086;-70
2021/01/30 04:12:04;;;;;;;21.17;2.40;;;6.20;99.90;;;;;;4951253;29;20109;-70
2021/01/30 04:14:32;;;;;;;14.25;1.80;;;6.20;99.90;;;;;;4967620;28;20488;-69
2021/01/30 04:16:59;;;;;;;27.00;3.42;;;6.20;99.90;;;;;;4951824;29;20122;-69
2021/01/30 04:19:25;;;;;;;20.45;2.70;;;6.30;99.90;;;;;;4950172;29;20063;-70
2021/01/30 04:21:52;;;;;;;26.35;2.05;;;6.20;99.90;;;;;;4966595;28;20062;-70
2021/01/30 04:24:18;;;;;;;22.77;3.15;;;6.20;99.90;;;;;;4958399;28;20265;-70
2021/01/30 04:26:46;;;;;;;22.23;2.63;;;6.30;99.90;;;;;;4951864;28;20110;-69
2021/01/30 04:29:13;;;;;;;30.20;3.03;;;6.20;99.90;;;;;;4952832;28;20094;-70
2021/01/30 04:31:40;;;;;;;21.90;2.67;;;6.30;99.90;;;;;;4951847;28;20110;-69
2021/01/30 04:34:07;;;;;;;27.75;3.13;;;6.20;99.90;;;;;;4953071;28;20296;-70
2021/01/30 04:36:34;;;;;;;29.40;3.13;;;6.20;99.90;;;;;;4950863;28;20079;-70
2021/01/30 04:39:00;;;;;;;24.17;1.98;;;6.20;99.90;;;;;;4949167;28;20133;-70
2021/01/30 04:41:39;;;;;;;31.50;2.92;;;6.10;99.90;;;;;;4950881;29;20134;-70
2021/01/30 04:44:17;;;;;;;30.05;2.80;;;6.10;99.90;;;;;;4950322;28;20124;-69
2021/01/30 04:46:57;;;;;;;25.15;3.17;;;6.10;99.90;;;;;;4951171;28;20104;-69
2021/01/30 04:49:32;;;;;;;23.55;2.42;;;6.10;99.90;;;;;;4939086;29;20051;-69
2021/01/30 04:52:23;;;;;;;33.20;3.33;;;6.10;99.90;;;;;;4950135;29;20059;-70
2021/01/30 04:55:12;;;;;;;25.05;3.28;;;6.10;99.90;;;;;;4951400;28;20521;-69
2021/01/30 04:57:53;;;;;;;27.25;3.67;;;6.10;99.90;;;;;;4949647;28;20078;-70
2021/01/30 05:00:44;;;;;;;15.45;2.47;;;6.00;99.90;;;;;;4945405;29;20081;-70
2021/01/30 05:03:19;;;;;;;31.38;2.92;;;6.00;99.90;;;;;;4951412;28;20054;-70
2021/01/30 05:05:52;;;;;;;21.33;3.03;;;6.00;99.90;;;;;;4951992;28;20217;-70
2021/01/30 05:08:25;;;;;;;30.03;3.10;;;6.00;99.90;;;;;;4948874;28;20082;-70
2021/01/30 05:11:00;;;;;;;29.63;2.83;;;6.00;99.90;;;;;;4952009;29;20130;-70
2021/01/30 05:13:35;;;;;;;22.92;2.63;;;6.00;99.90;;;;;;4952278;29;20066;-69
2021/01/30 05:16:05;;;;;;;27.90;3.33;;;6.00;99.90;;;;;;4951395;29;20067;-70
2021/01/30 05:18:34;;;;;;;26.50;2.55;;;5.90;99.90;;;;;;4951611;28;20059;-69
2021/01/30 05:21:34;;;;;;;22.05;3.13;;;5.90;99.90;;;;;;4952042;28;20106;-70
2021/01/30 05:24:01;;;;;;;24.98;3.03;;;5.90;99.90;;;;;;4947853;29;20483;-69
2021/01/30 05:26:39;;;;;;;22.35;2.65;;;5.90;99.90;;;;;;4949085;28;20061;-70
2021/01/30 05:29:26;;;;;;;24.10;2.63;;;5.90;99.90;;;;;;4949660;28;20137;-70
2021/01/30 05:32:03;;;;;;;26.15;3.13;;;5.90;99.90;;;;;;4950806;28;20130;-69
2021/01/30 05:34:44;;;;;;;27.25;3.38;;;5.90;99.90;;;;;;4951735;28;20087;-70
2021/01/30 05:37:16;;;;;;;34.53;3.20;;;5.90;99.90;;;;;;4946345;28;20189;-71
2021/01/30 05:39:58;;;;;;;24.73;2.33;;;5.90;99.90;;;;;;4951031;28;20151;-69
2021/01/30 05:42:35;;;;;;;33.70;2.78;;;5.90;99.90;;;;;;4942968;28;20134;-69
2021/01/30 05:45:16;;;;;;;28.10;3.83;;;5.80;99.90;;;;;;4941084;29;20050;-70
2021/01/30 05:47:47;;;;;;;21.65;2.63;;;5.90;99.90;;;;;;4951013;29;20410;-69
2021/01/30 05:50:42;;;;;;;26.25;3.13;;;5.90;99.90;;;;;;4941488;28;20075;-69
2021/01/30 05:53:13;;;;;;;32.97;4.32;;;5.80;99.90;;;;;;4951833;28;20149;-70
2021/01/30 05:55:39;;;;;;;22.20;3.03;;;5.90;99.90;;;;;;4948554;28;20129;-69
2021/01/30 05:58:14;;;;;;;25.30;2.65;;;5.90;99.90;;;;;;4948178;28;20550;-69
2021/01/30 06:00:41;;;;;;;19.20;3.20;;;5.90;99.90;;;;;;4949194;28;20134;-69
2021/01/30 06:03:15;;;;;;;27.17;2.90;;;5.90;99.90;;;;;;4949262;29;20470;-69
2021/01/30 06:05:47;;;;;;;23.73;3.88;;;5.90;99.90;;;;;;4937496;29;20159;-70
2021/01/30 06:08:29;;;;;;;28.98;3.45;;;5.80;99.90;;;;;;4949941;28;20174;-70
2021/01/30 06:11:10;;;;;;;27.52;4.43;;;5.90;99.90;;;;;;4951293;28;20055;-69
2021/01/30 06:13:54;;;;;;;22.70;4.18;;;6.00;99.90;;;;;;4948754;28;20126;-69
2021/01/30 06:16:39;;;;;;;;;;;5.90;99.90;;;;;;4951313;28;20571;-69
2021/01/30 06:19:21;;;;;;;26.65;3.90;;;5.90;99.90;;;;;;4947527;28;19938;-69
2021/01/30 06:22:13;;;;;;;25.73;3.75;;;5.90;99.90;;;;;;4949362;29;20516;-70
2021/01/30 06:24:45;;;;;;;30.52;3.78;;;5.90;99.90;;;;;;4949155;28;20152;-71
2021/01/30 06:27:32;;;;;;;23.70;3.80;;;6.00;99.90;;;;;;4948745;28;20154;-69
2021/01/30 06:30:06;;;;;;;25.60;3.33;;;6.00;99.90;;;;;;4949211;29;20095;-71
2021/01/30 06:32:44;;;;;;;37.10;4.05;;;6.10;99.90;;;;;;4948690;28;20043;-71
2021/01/30 06:35:23;;;;;;;26.88;3.58;;;6.10;99.90;;;;;;4948276;28;20071;-72
2021/01/30 06:37:54;;;;;;;21.80;2.75;;;6.00;99.90;;;;;;4944133;28;20134;-71
2021/01/30 06:40:29;;;;;;;28.80;4.13;;;6.00;99.90;;;;;;4949532;28;20110;-71
2021/01/30 06:43:11;;;;;;;35.35;5.00;;;6.10;99.90;;;;;;4950607;29;20043;-71
2021/01/30 06:45:40;;;;;;;16.10;3.08;;;6.10;99.90;;;;;;4950200;28;20146;-71
2021/01/30 06:48:23;;;;;;;27.38;4.15;;;6.10;99.90;;;;;;4950631;28;20631;-71
2021/01/30 06:50:54;;;;;;;28.92;4.53;;;6.10;99.90;;;;;;4947498;29;20047;-70
2021/01/30 06:53:27;;;;;;;34.97;6.07;;;6.10;99.90;;;;;;4950362;28;20137;-70
2021/01/30 06:55:54;;;;;;;34.63;4.47;;;6.10;99.90;;;;;;4949416;28;20134;-71
2021/01/30 06:58:29;;;;;;;32.80;5.18;;;6.10;99.90;;;;;;4949515;28;20059;-71
2021/01/30 07:01:12;;;;;;;23.17;3.58;;;6.10;99.90;;;;;;4948720;28;20071;-71
2021/01/30 07:03:58;;;;;;;;;;;6.10;99.90;;;;;;4950515;28;20089;-70
2021/01/30 07:06:54;;;;;;;25.95;3.65;;;6.10;99.90;;;;;;4948839;28;20385;-71
2021/01/30 07:09:40;;;;;;;25.10;4.38;;;6.10;99.90;;;;;;4950843;28;20078;-71
2021/01/30 07:12:15;;;;;;;28.45;4.20;;;6.10;99.90;;;;;;4953295;28;20131;-70
2021/01/30 07:14:50;;;;;;;35.13;4.75;;;6.10;99.90;;;;;;4953398;28;20197;-70
2021/01/30 07:17:35;;;;;;;22.05;4.10;;;6.10;99.90;;;;;;4951447;28;20150;-70
2021/01/30 07:20:01;;;;;;;26.35;3.80;;;6.10;99.90;;;;;;4954336;29;20612;-69
2021/01/30 07:23:03;;;;;;;28.67;4.93;;;6.10;99.90;;;;;;4953108;28;20185;-69
2021/01/30 07:26:00;;;;;;;41.72;3.75;;;6.10;99.90;;;;;;4946165;28;20463;-69
2021/01/30 07:28:46;;;;;;;27.77;4.15;;;6.10;99.90;;;;;;4966557;28;20121;-70
2021/01/30 07:31:23;;;;;;;33.58;4.05;;;6.10;99.90;;;;;;4964207;28;20134;-70
2021/01/30 07:33:52;;;;;;;29.95;5.03;;;6.20;99.90;;;;;;4953373;28;20075;-70
2021/01/30 07:36:34;;;;;;;34.30;5.03;;;6.20;99.90;;;;;;4953065;28;20078;-70
2021/01/30 07:39:09;;;;;;;37.60;5.47;;;6.20;99.90;;;;;;4951769;29;20122;-69
2021/01/30 07:41:52;;;;;;;25.10;4.32;;;6.20;99.90;;;;;;4952405;28;20050;-69
2021/01/30 07:44:26;;;;;;;31.70;5.03;;;6.10;99.90;;;;;;4951879;28;20074;-70
2021/01/30 07:47:08;;;;;;;40.58;6.30;;;6.20;99.90;;;;;;4951572;28;20096;-70
2021/01/30 07:49:37;;;;;;;39.60;5.43;;;6.20;99.90;;;;;;4951947;28;20552;-69
2021/01/30 07:52:09;;;;;;;33.53;4.25;;;6.20;99.90;;;;;;4939537;28;20047;-70
2021/01/30 07:54:49;;;;;;;43.63;5.82;;;6.20;99.90;;;;;;4951181;28;20055;-69
2021/01/30 07:57:23;;;;;;;37.97;5.18;;;6.20;99.90;;;;;;4951134;28;20193;-69
2021/01/30 07:59:49;;;;;;;41.60;6.22;;;6.20;99.90;;;;;;4951772;28;20149;-69
2021/01/30 08:02:39;;;;;;;35.95;5.22;;;6.20;99.90;;;;;;4951330;29;20162;-70
2021/01/30 08:05:14;;;;;;;33.42;5.88;;;6.20;99.90;;;;;;4953396;28;20478;-69
2021/01/30 08:07:44;;;;;;;36.95;5.68;;;6.20;99.90;;;;;;4951462;28;20087;-69
2021/01/30 08:10:19;;;;;;;31.10;5.57;;;6.20;99.90;;;;;;4942522;28;20439;-70
2021/01/30 08:13:05;;;;;;;41.58;5.93;;;6.30;99.90;;;;;;4948152;29;20208;-70
2021/01/30 08:15:47;;;;;;;44.50;6.35;;;6.30;99.90;;;;;;4951015;29;20062;-70
2021/01/30 08:18:23;;;;;;;35.33;5.15;;;6.30;99.90;;;;;;4944188;28;20047;-69
2021/01/30 08:21:05;;;;;;;44.65;6.07;;;6.30;99.90;;;;;;4950930;28;20079;-70
2021/01/30 08:23:50;;;;;;;43.22;5.72;;;6.20;99.90;;;;;;4947023;29;20079;-69
2021/01/30 08:26:30;;;;;;;33.42;5.53;;;6.30;99.90;;;;;;4951091;29;20047;-70
2021/01/30 08:29:18;;;;;;;38.45;5.60;;;6.30;99.90;;;;;;4949581;28;20071;-70
2021/01/30 08:31:54;;;;;;;35.10;5.28;;;6.30;99.90;;;;;;4951167;28;20055;-70
2021/01/30 08:34:20;;;;;;;43.60;5.93;;;6.40;99.90;;;;;;4950022;28;20065;-70
2021/01/30 08:36:52;;;;;;;29.65;5.43;;;6.40;99.90;;;;;;4950256;28;20463;-69
2021/01/30 08:39:36;;;;;;;26.40;5.20;;;6.50;99.90;;;;;;4949657;28;20097;-70
2021/01/30 08:42:18;;;;;;;36.75;6.38;;;6.50;99.90;;;;;;4950254;28;20161;-69
2021/01/30 08:44:50;;;;;;;27.60;5.18;;;6.50;99.90;;;;;;4952156;28;20135;-70
2021/01/30 08:47:22;;;;;;;26.92;5.50;;;6.50;99.90;;;;;;4950487;28;20134;-71
2021/01/30 08:50:06;;;;;;;30.00;5.38;;;6.60;99.90;;;;;;4952151;28;20115;-69
2021/01/30 08:52:38;;;;;;;34.22;5.40;;;6.60;99.90;;;;;;4951306;28;20110;-70
2021/01/30 08:55:32;;;;;;;36.95;6.10;;;6.60;99.90;;;;;;4952261;28;20082;-69
2021/01/30 08:57:59;;;;;;;22.00;5.07;;;6.50;99.90;;;;;;4951600;28;20134;-70
2021/01/30 09:00:25;;;;;;;51.47;7.72;;;6.60;99.90;;;;;;4949495;28;20153;-70
2021/01/30 09:02:57;;;;;;;41.95;6.53;;;6.70;99.90;;;;;;4950404;29;20466;-70
2021/01/30 09:05:27;;;;;;;40.88;6.65;;;6.70;99.90;;;;;;4949755;29;20067;-70
2021/01/30 09:07:55;;;;;;;30.42;6.57;;;6.70;99.90;;;;;;4950950;28;20043;-70
2021/01/30 09:10:22;;;;;;;30.00;5.63;;;6.70;99.90;;;;;;4944140;28;20096;-70
2021/01/30 09:12:56;;;;;;;25.10;4.75;;;6.70;99.90;;;;;;4952163;29;20153;-69
2021/01/30 09:15:41;;;;;;;26.33;5.97;;;6.70;99.90;;;;;;4948568;29;20459;-70
2021/01/30 09:18:20;;;;;;;33.45;4.75;;;6.60;99.90;;;;;;4944936;29;20055;-69
2021/01/30 09:21:12;;;;;;;27.35;6.68;;;6.60;99.90;;;;;;4946599;28;20046;-70
2021/01/30 09:23:48;;;;;;;30.10;7.83;;;6.60;99.90;;;;;;4954299;28;20122;-70
2021/01/30 09:26:23;;;;;;;37.38;5.55;;;6.60;99.90;;;;;;4946657;29;20106;-69
2021/01/30 09:28:57;;;;;;;16.42;3.80;;;6.60;99.90;;;;;;4942250;29;20051;-69
2021/01/30 09:31:26;;;;;;;24.25;4.28;;;6.60;99.90;;;;;;4946134;28;20094;-70
2021/01/30 09:34:07;;;;;;;21.80;3.97;;;6.60;99.90;;;;;;4949739;29;20150;-69
2021/01/30 09:36:45;;;;;;;21.20;6.13;;;6.50;99.90;;;;;;4949905;28;20079;-70
2021/01/30 09:39:21;;;;;;;18.75;5.22;;;6.50;99.90;;;;;;4951369;28;20051;-70
2021/01/30 09:41:48;;;;;;;19.67;3.40;;;6.50;99.90;;;;;;4966545;28;20503;-69
2021/01/30 09:44:25;;;;;;;14.15;2.58;;;6.50;99.90;;;;;;4948238;29;20133;-68
2021/01/30 09:47:05;;;;;;;22.85;3.78;;;6.50;99.90;;;;;;4947989;28;20050;-69
2021/01/30 09:49:44;;;;;;;16.13;3.22;;;6.50;99.90;;;;;;4951286;28;20097;-70
2021/01/30 09:52:20;;;;;;;12.70;2.25;;;6.50;99.90;;;;;;4945721;28;20089;-70
2021/01/30 09:54:56;;;;;;;18.13;3.88;;;6.40;99.90;;;;;;4960436;28;20123;-70
2021/01/30 09:57:27;;;;;;;21.63;3.15;;;6.40;99.90;;;;;;4948822;29;20097;-70
2021/01/30 10:00:08;;;;;;;20.60;3.65;;;6.40;99.90;;;;;;4948858;29;20078;-70
2021/01/30 10:02:35;;;;;;;14.70;2.20;;;6.40;99.90;;;;;;4947857;28;20526;-70
2021/01/30 10:05:06;;;;;;;18.10;3.28;;;6.30;99.90;;;;;;4949530;28;20043;-70
2021/01/30 10:07:33;;;;;;;16.20;3.03;;;6.30;99.90;;;;;;4943325;28;20181;-70
2021/01/30 10:10:00;;;;;;;19.48;4.40;;;6.30;99.90;;;;;;4942081;29;20146;-71
2021/01/30 10:12:33;;;;;;;17.65;2.30;;;6.30;99.90;;;;;;4949819;29;20134;-70
2021/01/30 10:14:59;;;;;;;12.23;2.40;;;6.30;99.90;;;;;;4950270;28;20484;-71
2021/01/30 10:17:38;;;;;;;14.95;3.13;;;6.30;99.90;;;;;;4937803;28;20082;-71
2021/01/30 10:20:16;;;;;;;9.68;1.75;;;6.30;99.90;;;;;;4946125;29;20055;-71
2021/01/30 10:22:46;;;;;;;17.13;2.15;;;6.20;99.90;;;;;;4932219;29;20476;-70
2021/01/30 10:25:23;;;;;;;17.98;2.83;;;6.30;99.90;;;;;;4947707;29;20052;-70
2021/01/30 10:28:09;;;;;;;13.20;2.25;;;6.30;99.90;;;;;;4940769;28;20495;-70
2021/01/30 10:30:36;;;;;;;9.48;1.48;;;6.30;99.90;;;;;;4933895;29;20051;-70
2021/01/30 10:33:06;;;;;;;12.80;2.83;;;6.30;99.90;;;;;;4945887;28;20079;-69
2021/01/30 10:35:42;;;;;;;11.20;2.03;;;6.30;99.90;;;;;;4946071;28;20087;-70
2021/01/30 10:38:12;;;;;;;11.85;1.90;;;6.30;99.90;;;;;;4949625;29;20055;-70
2021/01/30 10:40:44;;;;;;;12.50;2.28;;;6.30;99.90;;;;;;4949012;28;20114;-71
2021/01/30 10:43:26;;;;;;;12.15;2.10;;;6.20;99.90;;;;;;4946102;28;20047;-70
2021/01/30 10:46:14;;;;;;;11.27;1.83;;;6.30;99.90;;;;;;4945021;28;20544;-71
2021/01/30 10:48:41;;;;;;;11.88;1.67;;;6.30;99.90;;;;;;4935488;29;20043;-70
2021/01/30 10:51:31;;;;;;;18.73;2.72;;;6.30;99.90;;;;;;4947172;29;20079;-70
2021/01/30 10:54:15;;;;;;;16.02;2.40;;;6.30;99.90;;;;;;4951507;29;20133;-70
2021/01/30 10:56:41;;;;;;;11.10;2.95;;;6.40;99.90;;;;;;4954202;28;20047;-70
2021/01/30 10:59:22;;;;;;;12.10;1.77;;;6.50;99.90;;;;;;4944963;28;20464;-70
2021/01/30 11:01:48;;;;;;;11.98;2.53;;;6.60;99.90;;;;;;4935608;29;20434;-70
2021/01/30 11:04:26;;;;;;;10.13;1.80;;;6.60;99.90;;;;;;4944898;29;20043;-70
2021/01/30 11:07:00;;;;;;;10.73;1.58;;;6.60;99.90;;;;;;4943880;28;20047;-70
2021/01/30 11:09:30;;;;;;;7.80;1.75;;;6.60;99.90;;;;;;4954998;28;20408;-70
2021/01/30 11:12:24;;;;;;;10.75;1.95;;;6.60;99.90;;;;;;4952262;28;20047;-70
2021/01/30 11:14:51;;;;;;;10.40;2.20;;;6.70;99.90;;;;;;4941920;29;20142;-70
2021/01/30 11:17:18;;;;;;;13.50;3.95;;;6.70;99.90;;;;;;4943540;28;20137;-70
2021/01/30 11:19:45;;;;;;;14.50;2.22;;;6.70;99.90;;;;;;4949916;28;20066;-69
2021/01/30 11:22:23;;;;;;;12.05;2.20;;;6.80;99.90;;;;;;4951567;28;20383;-69
2021/01/30 11:24:52;;;;;;;14.23;3.08;;;6.80;99.90;;;;;;4946039;28;20541;-69
2021/01/30 11:27:33;;;;;;;10.05;1.70;;;6.80;99.90;;;;;;4953021;28;20047;-69
2021/01/30 11:30:20;;;;;;;11.35;1.42;;;6.90;99.90;;;;;;4953076;28;20067;-70
2021/01/30 11:33:14;;;;;;;6.82;1.40;;;7.00;99.90;;;;;;4950284;28;20136;-70
2021/01/30 11:35:44;;;;;;;14.57;1.75;;;7.00;99.90;;;;;;4952574;29;20055;-70
2021/01/30 11:38:13;;;;;;;8.00;1.65;;;7.00;99.90;;;;;;4953172;28;20157;-70
2021/01/30 11:40:40;;;;;;;7.15;1.75;;;7.10;99.90;;;;;;4953836;28;20185;-70
2021/01/30 11:43:07;;;;;;;10.63;1.52;;;7.20;99.90;;;;;;4955098;28;20047;-70
2021/01/30 11:45:34;;;;;;;8.23;1.55;;;7.20;99.90;;;;;;4950089;28;20075;-69
2021/01/30 11:48:00;;;;;;;11.75;1.48;;;7.30;99.90;;;;;;4955621;28;20071;-69
2021/01/30 11:50:27;;;;;;;12.23;3.08;;;7.40;99.90;;;;;;4948650;29;20150;-70
2021/01/30 11:53:08;;;;;;;15.70;2.42;;;7.30;99.90;;;;;;4943706;29;20047;-70
2021/01/30 11:55:35;;;;;;;10.75;1.40;;;7.30;99.90;;;;;;4950040;28;20455;-70
2021/01/30 11:58:03;;;;;;;5.18;0.90;;;7.40;99.90;;;;;;4954229;28;20074;-70
2021/01/30 12:00:29;;;;;;;6.18;0.93;;;7.40;99.90;;;;;;4952460;28;20173;-70
2021/01/30 12:03:02;;;;;;;5.97;0.90;;;7.40;99.90;;;;;;4953389;28;20043;-70
2021/01/30 12:05:30;;;;;;;7.95;1.52;;;7.40;99.90;;;;;;4954222;28;20047;-69
2021/01/30 12:07:58;;;;;;;5.70;1.10;;;7.30;99.90;;;;;;4952872;28;20502;-70
2021/01/30 12:10:25;;;;;;;4.22;0.77;;;7.30;99.90;;;;;;4953825;28;20078;-70
2021/01/30 12:12:52;;;;;;;4.28;0.77;;;7.30;99.90;;;;;;4950798;29;20782;-69
2021/01/30 12:15:19;;;;;;;4.53;0.90;;;7.30;99.90;;;;;;4945804;29;20574;-70
2021/01/30 12:17:47;;;;;;;6.78;1.30;;;7.40;99.90;;;;;;4943575;29;20075;-70
2021/01/30 12:20:28;;;;;;;7.70;1.50;;;7.30;99.90;;;;;;4953440;28;20098;-70
2021/01/30 12:22:57;;;;;;;8.02;1.30;;;7.30;99.90;;;;;;4945456;29;20047;-69
2021/01/30 12:25:24;;;;;;;4.07;1.05;;;7.20;99.90;;;;;;4952449;29;20070;-70
2021/01/30 12:27:53;;;;;;;11.20;2.20;;;7.20;99.90;;;;;;4951458;28;20125;-70
2021/01/30 12:30:22;;;;;;;8.02;2.10;;;7.20;99.90;;;;;;4954121;28;20214;-69
2021/01/30 12:32:49;;;;;;;7.72;1.30;;;7.30;99.90;;;;;;4951287;28;20094;-70
2021/01/30 12:35:17;;;;;;;7.68;1.67;;;7.40;99.90;;;;;;4936322;29;20051;-69
2021/01/30 12:37:44;;;;;;;5.72;1.10;;;7.30;99.90;;;;;;4945943;28;20048;-70
2021/01/30 12:40:11;;;;;;;7.85;1.25;;;7.40;99.90;;;;;;4938208;29;20442;-70
2021/01/30 12:42:37;;;;;;;6.65;1.02;;;7.30;99.90;;;;;;4950791;28;20541;-70
2021/01/30 12:45:05;;;;;;;6.38;1.15;;;7.40;99.90;;;;;;4951465;29;20079;-70
2021/01/30 12:47:32;;;;;;;8.05;1.17;;;7.50;99.90;;;;;;4960873;28;20078;-70
2021/01/30 12:50:10;;;;;;;4.18;0.90;;;7.40;99.90;;;;;;4946196;29;20057;-70
2021/01/30 12:52:36;;;;;;;7.70;1.30;;;7.50;99.90;;;;;;4949952;28;20133;-70
2021/01/30 12:55:03;;;;;;;5.90;1.17;;;7.50;99.90;;;;;;4934476;29;20154;-70
2021/01/30 12:57:29;;;;;;;6.82;1.00;;;7.50;99.90;;;;;;4949550;28;20474;-69
2021/01/30 12:59:55;;;;;;;5.45;1.10;;;7.50;99.90;;;;;;4950709;28;20105;-70
2021/01/30 13:02:22;;;;;;;3.38;0.88;;;7.50;99.90;;;;;;4945548;29;20413;-69
2021/01/30 13:04:48;;;;;;;7.22;0.93;;;7.50;99.90;;;;;;4950430;29;20090;-69
2021/01/30 13:07:15;;;;;;;3.15;0.70;;;7.40;99.90;;;;;;4949026;28;20067;-69
2021/01/30 13:09:41;;;;;;;5.50;0.70;;;7.50;99.90;;;;;;4952514;28;20083;-69
2021/01/30 13:12:10;;;;;;;2.20;0.47;;;7.50;99.90;;;;;;4953159;28;20062;-69
2021/01/30 13:14:38;;;;;;;6.38;0.75;;;7.60;99.90;;;;;;4950425;28;20054;-70
2021/01/30 13:17:05;;;;;;;3.60;0.80;;;7.50;99.90;;;;;;4967110;28;20070;-69
2021/01/30 13:19:32;;;;;;;5.30;0.73;;;7.50;99.90;;;;;;4952298;28;20514;-69
2021/01/30 13:21:58;;;;;;;1.88;0.50;;;7.40;99.90;;;;;;4952789;28;20130;-70